Aviation Digital Data Service (ADDS)

Output produced by METARs form (0611 UTC 19 March 2019)
found at http://www.aviationweather.gov/metar/data/
 
METAR text: CYWG 190600Z VRB02KT 7SM SKC M06/M08 A3010 RMK BR SLP208
Conditions at: CYWG (WINNIPEG INTL AR, MB, CA) observed 0600 UTC 19 March 2019
Temperature: -6.0°C (21°F)
Dewpoint: -8.0°C (18°F) [RH = 86%]
Pressure (altimeter): 30.10 inches Hg (1019.4 mb)
[Sea-level pressure: 1020.8 mb]
Winds: variable direction winds at 2 MPH (2 knots; 1.0 m/s)
Visibility: 7 miles (11 km)
Ceiling: at least 12,000 feet AGL
Clouds: clear skies
Weather: no significant weather observed at this time

METAR text: CYWG 190500Z 24002KT 8SM SKC M04/M05 A3010 RMK BR SLP208
Conditions at: CYWG (WINNIPEG INTL AR, MB, CA) observed 0500 UTC 19 March 2019
Temperature: -4.0°C (25°F)
Dewpoint: -5.0°C (23°F) [RH = 93%]
Pressure (altimeter): 30.10 inches Hg (1019.4 mb)
[Sea-level pressure: 1020.8 mb]
Winds: from the WSW (240 degrees) at 2 MPH (2 knots; 1.0 m/s)
Visibility: 8 miles (13 km)
Ceiling: at least 12,000 feet AGL
Clouds: clear skies
Weather: no significant weather observed at this time

METAR text: CYWG 190400Z 18002KT 15SM SKC M03/M05 A3009 RMK SLP205
Conditions at: CYWG (WINNIPEG INTL AR, MB, CA) observed 0400 UTC 19 March 2019
Temperature: -3.0°C (27°F)
Dewpoint: -5.0°C (23°F) [RH = 86%]
Pressure (altimeter): 30.09 inches Hg (1019.0 mb)
[Sea-level pressure: 1020.5 mb]
Winds: from the S (180 degrees) at 2 MPH (2 knots; 1.0 m/s)
Visibility: 15 miles (24 km)
Ceiling: at least 12,000 feet AGL
Clouds: clear skies
Weather: no significant weather observed at this time

METAR text: CYWG 190300Z 16003KT 15SM SKC M02/M04 A3009 RMK SLP205
Conditions at: CYWG (WINNIPEG INTL AR, MB, CA) observed 0300 UTC 19 March 2019
Temperature: -2.0°C (28°F)
Dewpoint: -4.0°C (25°F) [RH = 86%]
Pressure (altimeter): 30.09 inches Hg (1019.0 mb)
[Sea-level pressure: 1020.5 mb]
Winds: from the SSE (160 degrees) at 3 MPH (3 knots; 1.5 m/s)
Visibility: 15 miles (24 km)
Ceiling: at least 12,000 feet AGL
Clouds: clear skies
Weather: no significant weather observed at this time

METAR text: CYWG 190200Z 19005KT 15SM SKC M01/M03 A3007 RMK SLP199
Conditions at: CYWG (WINNIPEG INTL AR, MB, CA) observed 0200 UTC 19 March 2019
Temperature: -1.0°C (30°F)
Dewpoint: -3.0°C (27°F) [RH = 86%]
Pressure (altimeter): 30.07 inches Hg (1018.4 mb)
[Sea-level pressure: 1019.9 mb]
Winds: from the S (190 degrees) at 6 MPH (5 knots; 2.6 m/s)
Visibility: 15 miles (24 km)
Ceiling: at least 12,000 feet AGL
Clouds: clear skies
Weather: no significant weather observed at this time

METAR text: CYWG 190100Z 21005KT 15SM FEW150 00/M03 A3005 RMK AC1 SLP193
Conditions at: CYWG (WINNIPEG INTL AR, MB, CA) observed 0100 UTC 19 March 2019
Temperature: 0.0°C (32°F)
Dewpoint: -3.0°C (27°F) [RH = 80%]
Pressure (altimeter): 30.05 inches Hg (1017.7 mb)
[Sea-level pressure: 1019.3 mb]
Winds: from the SSW (210 degrees) at 6 MPH (5 knots; 2.6 m/s)
Visibility: 15 miles (24 km)
Ceiling: at least 12,000 feet AGL
Clouds: few clouds at 15000 feet AGL
Weather: no significant weather observed at this time

METAR text: CYWG 190000Z 21006KT 15SM FEW150 02/M03 A3005 RMK AC1 SLP193
Conditions at: CYWG (WINNIPEG INTL AR, MB, CA) observed 0000 UTC 19 March 2019
Temperature: 2.0°C (36°F)
Dewpoint: -3.0°C (27°F) [RH = 69%]
Pressure (altimeter): 30.05 inches Hg (1017.7 mb)
[Sea-level pressure: 1019.3 mb]
Winds: from the SSW (210 degrees) at 7 MPH (6 knots; 3.1 m/s)
Visibility: 15 miles (24 km)
Ceiling: at least 12,000 feet AGL
Clouds: few clouds at 15000 feet AGL
Weather: no significant weather observed at this time

METAR text: CYWG 182300Z 21010KT 15SM FEW150 SCT240 02/M03 A3004 RMK AC1CI2 SLP187
Conditions at: CYWG (WINNIPEG INTL AR, MB, CA) observed 2300 UTC 18 March 2019
Temperature: 2.0°C (36°F)
Dewpoint: -3.0°C (27°F) [RH = 69%]
Pressure (altimeter): 30.04 inches Hg (1017.4 mb)
[Sea-level pressure: 1018.7 mb]
Winds: from the SSW (210 degrees) at 12 MPH (10 knots; 5.1 m/s)
Visibility: 15 miles (24 km)
Ceiling: at least 12,000 feet AGL
Clouds: few clouds at 15000 feet AGL
scattered clouds at 24000 feet AGL
Weather: no significant weather observed at this time

METAR text: CYWG 182200Z 21008KT 15SM FEW150 SCT250 02/M03 A3002 RMK AC1CI2 SLP183
Conditions at: CYWG (WINNIPEG INTL AR, MB, CA) observed 2200 UTC 18 March 2019
Temperature: 2.0°C (36°F)
Dewpoint: -3.0°C (27°F) [RH = 69%]
Pressure (altimeter): 30.02 inches Hg (1016.7 mb)
[Sea-level pressure: 1018.3 mb]
Winds: from the SSW (210 degrees) at 9 MPH (8 knots; 4.1 m/s)
Visibility: 15 miles (24 km)
Ceiling: at least 12,000 feet AGL
Clouds: few clouds at 15000 feet AGL
scattered clouds at 25000 feet AGL
Weather: no significant weather observed at this time

METAR text: CYWG 182100Z 21011KT 15SM FEW040 FEW150 SCT250 02/M03 A3003 RMK SC1AC1CI1 SLP183
Conditions at: CYWG (WINNIPEG INTL AR, MB, CA) observed 2100 UTC 18 March 2019
Temperature: 2.0°C (36°F)
Dewpoint: -3.0°C (27°F) [RH = 69%]
Pressure (altimeter): 30.03 inches Hg (1017.0 mb)
[Sea-level pressure: 1018.3 mb]
Winds: from the SSW (210 degrees) at 13 MPH (11 knots; 5.7 m/s)
Visibility: 15 miles (24 km)
Ceiling: at least 12,000 feet AGL
Clouds: few clouds at 4000 feet AGL
few clouds at 15000 feet AGL
scattered clouds at 25000 feet AGL
Weather: no significant weather observed at this time

METAR text: CYWG 182000Z 20013KT 15SM BKN038 BKN150 01/M03 A3004 RMK SC5AC2 SLP187
Conditions at: CYWG (WINNIPEG INTL AR, MB, CA) observed 2000 UTC 18 March 2019
Temperature: 1.0°C (34°F)
Dewpoint: -3.0°C (27°F) [RH = 75%]
Pressure (altimeter): 30.04 inches Hg (1017.4 mb)
[Sea-level pressure: 1018.7 mb]
Winds: from the SSW (200 degrees) at 15 MPH (13 knots; 6.7 m/s)
Visibility: 15 miles (24 km)
Ceiling: 3800 feet AGL
Clouds: broken clouds at 3800 feet AGL
broken clouds at 15000 feet AGL
Weather: no significant weather observed at this time

METAR text: CYWG 181900Z 20016KT 15SM BKN040 BKN150 01/M04 A3004 RMK SC6AC1 SLP187
Conditions at: CYWG (WINNIPEG INTL AR, MB, CA) observed 1900 UTC 18 March 2019
Temperature: 1.0°C (34°F)
Dewpoint: -4.0°C (25°F) [RH = 69%]
Pressure (altimeter): 30.04 inches Hg (1017.4 mb)
[Sea-level pressure: 1018.7 mb]
Winds: from the SSW (200 degrees) at 18 MPH (16 knots; 8.2 m/s)
Visibility: 15 miles (24 km)
Ceiling: 4000 feet AGL
Clouds: broken clouds at 4000 feet AGL
broken clouds at 15000 feet AGL
Weather: no significant weather observed at this time

METAR text: CYWG 181800Z 21014G20KT 15SM OVC052 01/M05 A3005 RMK SC8 VIRGA ALQDS SLP193
Conditions at: CYWG (WINNIPEG INTL AR, MB, CA) observed 1800 UTC 18 March 2019
Temperature: 1.0°C (34°F)
Dewpoint: -5.0°C (23°F) [RH = 64%]
Pressure (altimeter): 30.05 inches Hg (1017.7 mb)
[Sea-level pressure: 1019.3 mb]
Winds: from the SSW (210 degrees) at 16 MPH (14 knots; 7.2 m/s)
gusting to 23 MPH (20 knots; 10.3 m/s)
Visibility: 15 miles (24 km)
Ceiling: 5200 feet AGL
Clouds: overcast cloud deck at 5200 feet AGL
Weather: no significant weather observed at this time

METAR text: CYWG 181700Z 21015KT 15SM OVC082 00/M06 A3007 RMK AC8 VIRGA ALQDS SLP198
Conditions at: CYWG (WINNIPEG INTL AR, MB, CA) observed 1700 UTC 18 March 2019
Temperature: 0.0°C (32°F)
Dewpoint: -6.0°C (21°F) [RH = 64%]
Pressure (altimeter): 30.07 inches Hg (1018.4 mb)
[Sea-level pressure: 1019.8 mb]
Winds: from the SSW (210 degrees) at 17 MPH (15 knots; 7.7 m/s)
Visibility: 15 miles (24 km)
Ceiling: 8200 feet AGL
Clouds: overcast cloud deck at 8200 feet AGL
Weather: no significant weather observed at this time

METAR text: CYWG 181600Z 19017KT 15SM OVC092 M01/M07 A3008 RMK AC8 VIRGA ALQDS SLP203
Conditions at: CYWG (WINNIPEG INTL AR, MB, CA) observed 1600 UTC 18 March 2019
Temperature: -1.0°C (30°F)
Dewpoint: -7.0°C (19°F) [RH = 64%]
Pressure (altimeter): 30.08 inches Hg (1018.7 mb)
[Sea-level pressure: 1020.3 mb]
Winds: from the S (190 degrees) at 20 MPH (17 knots; 8.7 m/s)
Visibility: 15 miles (24 km)
Ceiling: 9200 feet AGL
Clouds: overcast cloud deck at 9200 feet AGL
Weather: no significant weather observed at this time

METAR text: CYWG 181500Z 19014KT 15SM OVC093 M03/M07 A3011 RMK AC8 VIRGA ALQDS SLP212
Conditions at: CYWG (WINNIPEG INTL AR, MB, CA) observed 1500 UTC 18 March 2019
Temperature: -3.0°C (27°F)
Dewpoint: -7.0°C (19°F) [RH = 74%]
Pressure (altimeter): 30.11 inches Hg (1019.7 mb)
[Sea-level pressure: 1021.2 mb]
Winds: from the S (190 degrees) at 16 MPH (14 knots; 7.2 m/s)
Visibility: 15 miles (24 km)
Ceiling: 9300 feet AGL
Clouds: overcast cloud deck at 9300 feet AGL
Weather: no significant weather observed at this time

METAR text: CYWG 181400Z 19011KT 15SM OVC092 M05/M09 A3014 RMK AC8 VIRGA ALQDS SLP225
Conditions at: CYWG (WINNIPEG INTL AR, MB, CA) observed 1400 UTC 18 March 2019
Temperature: -5.0°C (23°F)
Dewpoint: -9.0°C (16°F) [RH = 73%]
Pressure (altimeter): 30.14 inches Hg (1020.7 mb)
[Sea-level pressure: 1022.5 mb]
Winds: from the S (190 degrees) at 13 MPH (11 knots; 5.7 m/s)
Visibility: 15 miles (24 km)
Ceiling: 9200 feet AGL
Clouds: overcast cloud deck at 9200 feet AGL
Weather: no significant weather observed at this time

METAR text: CYWG 181300Z 21011KT 15SM BKN092 OVC160 M05/M09 A3017 RMK AC5AC3 VIRGA ALQDS SLP235
Conditions at: CYWG (WINNIPEG INTL AR, MB, CA) observed 1300 UTC 18 March 2019
Temperature: -5.0°C (23°F)
Dewpoint: -9.0°C (16°F) [RH = 73%]
Pressure (altimeter): 30.17 inches Hg (1021.8 mb)
[Sea-level pressure: 1023.5 mb]
Winds: from the SSW (210 degrees) at 13 MPH (11 knots; 5.7 m/s)
Visibility: 15 miles (24 km)
Ceiling: 9200 feet AGL
Clouds: broken clouds at 9200 feet AGL
overcast cloud deck at 16000 feet AGL
Weather: no significant weather observed at this time

METAR text: CYWG 181200Z 21011G17KT 15SM FEW100 BKN160 M05/M09 A3020 RMK AC2AC3 SLP243
Conditions at: CYWG (WINNIPEG INTL AR, MB, CA) observed 1200 UTC 18 March 2019
Temperature: -5.0°C (23°F)
Dewpoint: -9.0°C (16°F) [RH = 73%]
Pressure (altimeter): 30.20 inches Hg (1022.8 mb)
[Sea-level pressure: 1024.3 mb]
Winds: from the SSW (210 degrees) at 13 MPH (11 knots; 5.7 m/s)
gusting to 20 MPH (17 knots; 8.7 m/s)
Visibility: 15 miles (24 km)
Ceiling: 16000 feet AGL
Clouds: few clouds at 10000 feet AGL
broken clouds at 16000 feet AGL
Weather: no significant weather observed at this time

METAR text: CYWG 181100Z 22011KT 15SM FEW130 SCT220 M05/M09 A3021 RMK AC2CI2 SLP248
Conditions at: CYWG (WINNIPEG INTL AR, MB, CA) observed 1100 UTC 18 March 2019
Temperature: -5.0°C (23°F)
Dewpoint: -9.0°C (16°F) [RH = 73%]
Pressure (altimeter): 30.21 inches Hg (1023.1 mb)
[Sea-level pressure: 1024.8 mb]
Winds: from the SW (220 degrees) at 13 MPH (11 knots; 5.7 m/s)
Visibility: 15 miles (24 km)
Ceiling: at least 12,000 feet AGL
Clouds: few clouds at 13000 feet AGL
scattered clouds at 22000 feet AGL
Weather: no significant weather observed at this time

METAR text: CYWG 181000Z 23008KT 15SM BKN220 M06/M09 A3023 RMK CI5 SLP253
Conditions at: CYWG (WINNIPEG INTL AR, MB, CA) observed 1000 UTC 18 March 2019
Temperature: -6.0°C (21°F)
Dewpoint: -9.0°C (16°F) [RH = 79%]
Pressure (altimeter): 30.23 inches Hg (1023.8 mb)
[Sea-level pressure: 1025.3 mb]
Winds: from the SW (230 degrees) at 9 MPH (8 knots; 4.1 m/s)
Visibility: 15 miles (24 km)
Ceiling: 22000 feet AGL
Clouds: broken clouds at 22000 feet AGL
Weather: no significant weather observed at this time

METAR text: CYWG 180900Z 24008KT 15SM SCT220 M05/M08 A3025 RMK CI3 SLP261
Conditions at: CYWG (WINNIPEG INTL AR, MB, CA) observed 0900 UTC 18 March 2019
Temperature: -5.0°C (23°F)
Dewpoint: -8.0°C (18°F) [RH = 79%]
Pressure (altimeter): 30.25 inches Hg (1024.5 mb)
[Sea-level pressure: 1026.1 mb]
Winds: from the WSW (240 degrees) at 9 MPH (8 knots; 4.1 m/s)
Visibility: 15 miles (24 km)
Ceiling: at least 12,000 feet AGL
Clouds: scattered clouds at 22000 feet AGL
Weather: no significant weather observed at this time

METAR text: CYWG 180800Z 25007KT 15SM SKC M06/M08 A3028 RMK SLP269
Conditions at: CYWG (WINNIPEG INTL AR, MB, CA) observed 0800 UTC 18 March 2019
Temperature: -6.0°C (21°F)
Dewpoint: -8.0°C (18°F) [RH = 86%]
Pressure (altimeter): 30.28 inches Hg (1025.5 mb)
[Sea-level pressure: 1026.9 mb]
Winds: from the WSW (250 degrees) at 8 MPH (7 knots; 3.6 m/s)
Visibility: 15 miles (24 km)
Ceiling: at least 12,000 feet AGL
Clouds: clear skies
Weather: no significant weather observed at this time

METAR text: CYWG 180700Z 26006KT 15SM SKC M05/M07 A3029 RMK SLP273
Conditions at: CYWG (WINNIPEG INTL AR, MB, CA) observed 0700 UTC 18 March 2019
Temperature: -5.0°C (23°F)
Dewpoint: -7.0°C (19°F) [RH = 86%]
Pressure (altimeter): 30.29 inches Hg (1025.8 mb)
[Sea-level pressure: 1027.3 mb]
Winds: from the W (260 degrees) at 7 MPH (6 knots; 3.1 m/s)
Visibility: 15 miles (24 km)
Ceiling: at least 12,000 feet AGL
Clouds: clear skies
Weather: no significant weather observed at this time

METAR text: CYWG 180600Z 26008KT 15SM SKC M07/M08 A3029 RMK SLP276
Conditions at: CYWG (WINNIPEG INTL AR, MB, CA) observed 0600 UTC 18 March 2019
Temperature: -7.0°C (19°F)
Dewpoint: -8.0°C (18°F) [RH = 93%]
Pressure (altimeter): 30.29 inches Hg (1025.8 mb)
[Sea-level pressure: 1027.6 mb]
Winds: from the W (260 degrees) at 9 MPH (8 knots; 4.1 m/s)
Visibility: 15 miles (24 km)
Ceiling: at least 12,000 feet AGL
Clouds: clear skies
Weather: no significant weather observed at this time

METAR text: CYWG 180500Z 27010KT 15SM SKC M06/M08 A3030 RMK SLP278
Conditions at: CYWG (WINNIPEG INTL AR, MB, CA) observed 0500 UTC 18 March 2019
Temperature: -6.0°C (21°F)
Dewpoint: -8.0°C (18°F) [RH = 86%]
Pressure (altimeter): 30.30 inches Hg (1026.2 mb)
[Sea-level pressure: 1027.8 mb]
Winds: from the W (270 degrees) at 12 MPH (10 knots; 5.1 m/s)
Visibility: 15 miles (24 km)
Ceiling: at least 12,000 feet AGL
Clouds: clear skies
Weather: no significant weather observed at this time

METAR text: CYWG 180400Z 28008KT 15SM SKC M06/M08 A3029 RMK SLP277
Conditions at: CYWG (WINNIPEG INTL AR, MB, CA) observed 0400 UTC 18 March 2019
Temperature: -6.0°C (21°F)
Dewpoint: -8.0°C (18°F) [RH = 86%]
Pressure (altimeter): 30.29 inches Hg (1025.8 mb)
[Sea-level pressure: 1027.7 mb]
Winds: from the W (280 degrees) at 9 MPH (8 knots; 4.1 m/s)
Visibility: 15 miles (24 km)
Ceiling: at least 12,000 feet AGL
Clouds: clear skies
Weather: no significant weather observed at this time

METAR text: CYWG 180300Z 28007KT 15SM SKC M06/M08 A3029 RMK SLP276
Conditions at: CYWG (WINNIPEG INTL AR, MB, CA) observed 0300 UTC 18 March 2019
Temperature: -6.0°C (21°F)
Dewpoint: -8.0°C (18°F) [RH = 86%]
Pressure (altimeter): 30.29 inches Hg (1025.8 mb)
[Sea-level pressure: 1027.6 mb]
Winds: from the W (280 degrees) at 8 MPH (7 knots; 3.6 m/s)
Visibility: 15 miles (24 km)
Ceiling: at least 12,000 feet AGL
Clouds: clear skies
Weather: no significant weather observed at this time

METAR text: CYWG 180200Z 29009KT 15SM SKC M05/M07 A3028 RMK SLP275
Conditions at: CYWG (WINNIPEG INTL AR, MB, CA) observed 0200 UTC 18 March 2019
Temperature: -5.0°C (23°F)
Dewpoint: -7.0°C (19°F) [RH = 86%]
Pressure (altimeter): 30.28 inches Hg (1025.5 mb)
[Sea-level pressure: 1027.5 mb]
Winds: from the WNW (290 degrees) at 10 MPH (9 knots; 4.6 m/s)
Visibility: 15 miles (24 km)
Ceiling: at least 12,000 feet AGL
Clouds: clear skies
Weather: no significant weather observed at this time

METAR text: CYWG 180100Z 28008KT 15SM FEW050 M03/M05 A3028 RMK SC1 SC TR SLP274
Conditions at: CYWG (WINNIPEG INTL AR, MB, CA) observed 0100 UTC 18 March 2019
Temperature: -3.0°C (27°F)
Dewpoint: -5.0°C (23°F) [RH = 86%]
Pressure (altimeter): 30.28 inches Hg (1025.5 mb)
[Sea-level pressure: 1027.4 mb]
Winds: from the W (280 degrees) at 9 MPH (8 knots; 4.1 m/s)
Visibility: 15 miles (24 km)
Ceiling: at least 12,000 feet AGL
Clouds: few clouds at 5000 feet AGL
Weather: no significant weather observed at this time

METAR text: CYWG 180000Z 29009KT 15SM FEW050 FEW090 M00/M03 A3027 RMK SC1AC2 SC TR SLP270
Conditions at: CYWG (WINNIPEG INTL AR, MB, CA) observed 0000 UTC 18 March 2019
Temperature: 0.0°C (32°F)
Dewpoint: -3.0°C (27°F) [RH = 80%]
Pressure (altimeter): 30.27 inches Hg (1025.1 mb)
[Sea-level pressure: 1027.0 mb]
Winds: from the WNW (290 degrees) at 10 MPH (9 knots; 4.6 m/s)
Visibility: 15 miles (24 km)
Ceiling: at least 12,000 feet AGL
Clouds: few clouds at 5000 feet AGL
few clouds at 9000 feet AGL
Weather: no significant weather observed at this time

METAR text: CYWG 172300Z 28009KT 15SM FEW065 FEW250 01/M02 A3027 RMK SC1CI1 CI TR SLP269
Conditions at: CYWG (WINNIPEG INTL AR, MB, CA) observed 2300 UTC 17 March 2019
Temperature: 1.0°C (34°F)
Dewpoint: -2.0°C (28°F) [RH = 80%]
Pressure (altimeter): 30.27 inches Hg (1025.1 mb)
[Sea-level pressure: 1026.9 mb]
Winds: from the W (280 degrees) at 10 MPH (9 knots; 4.6 m/s)
Visibility: 15 miles (24 km)
Ceiling: at least 12,000 feet AGL
Clouds: few clouds at 6500 feet AGL
few clouds at 25000 feet AGL
Weather: no significant weather observed at this time

METAR text: CYWG 172200Z 28008KT 15SM FEW065 SCT250 01/M03 A3026 RMK SC2CI2 SLP266
Conditions at: CYWG (WINNIPEG INTL AR, MB, CA) observed 2200 UTC 17 March 2019
Temperature: 1.0°C (34°F)
Dewpoint: -3.0°C (27°F) [RH = 75%]
Pressure (altimeter): 30.26 inches Hg (1024.8 mb)
[Sea-level pressure: 1026.6 mb]
Winds: from the W (280 degrees) at 9 MPH (8 knots; 4.1 m/s)
Visibility: 15 miles (24 km)
Ceiling: at least 12,000 feet AGL
Clouds: few clouds at 6500 feet AGL
scattered clouds at 25000 feet AGL
Weather: no significant weather observed at this time

METAR text: CYWG 172100Z 27007KT 15SM BKN065 01/M03 A3025 RMK SC6 SLP262
Conditions at: CYWG (WINNIPEG INTL AR, MB, CA) observed 2100 UTC 17 March 2019
Temperature: 1.0°C (34°F)
Dewpoint: -3.0°C (27°F) [RH = 75%]
Pressure (altimeter): 30.25 inches Hg (1024.5 mb)
[Sea-level pressure: 1026.2 mb]
Winds: from the W (270 degrees) at 8 MPH (7 knots; 3.6 m/s)
Visibility: 15 miles (24 km)
Ceiling: 6500 feet AGL
Clouds: broken clouds at 6500 feet AGL
Weather: no significant weather observed at this time

METAR text: CYWG 172000Z 28006KT 15SM BKN057 00/M04 A3025 RMK SC6 SLP260
Conditions at: CYWG (WINNIPEG INTL AR, MB, CA) observed 2000 UTC 17 March 2019
Temperature: 0.0°C (32°F)
Dewpoint: -4.0°C (25°F) [RH = 74%]
Pressure (altimeter): 30.25 inches Hg (1024.5 mb)
[Sea-level pressure: 1026.0 mb]
Winds: from the W (280 degrees) at 7 MPH (6 knots; 3.1 m/s)
Visibility: 15 miles (24 km)
Ceiling: 5700 feet AGL
Clouds: broken clouds at 5700 feet AGL
Weather: no significant weather observed at this time

METAR text: CYWG 171900Z 27009KT 15SM SCT130 SCT250 M00/M05 A3025 RMK AC3CI1 SLP262
Conditions at: CYWG (WINNIPEG INTL AR, MB, CA) observed 1900 UTC 17 March 2019
Temperature: 0.0°C (32°F)
Dewpoint: -5.0°C (23°F) [RH = 69%]
Pressure (altimeter): 30.25 inches Hg (1024.5 mb)
[Sea-level pressure: 1026.2 mb]
Winds: from the W (270 degrees) at 10 MPH (9 knots; 4.6 m/s)
Visibility: 15 miles (24 km)
Ceiling: at least 12,000 feet AGL
Clouds: scattered clouds at 13000 feet AGL
scattered clouds at 25000 feet AGL
Weather: no significant weather observed at this time

Forecast for: CYWG (WINNIPEG INTL AR, MB, CA)
Text: TAF CYWG 190538Z 1906/2006 VRB03KT P6SM SKC
Forecast period: 0600 to 1500 UTC 19 March 2019
Forecast type: FROM: standard forecast or significant change
Winds: variable direction winds at 3 MPH (3 knots; 1.5 m/s)
Visibility: 6 or more miles 10+ km)
Clouds: clear skies
Weather: no significant weather forecast for this period
Text: TEMPO 1907/1915 2SM BR BKN005
Forecast period: 0700 to 1500 UTC 19 March 2019
Forecast type: TEMPORARY: The following changes expected for less than half the time period
Visibility: 2.00 miles (3.22 km)
Ceiling: 500 feet AGL
Clouds: broken clouds at 500 feet AGL
Weather: BR  (mist)
Text: PROB30 1909/1915 1/2SM FZFG VV002
Forecast period: 0900 to 1500 UTC 19 March 2019
Forecast type: PROBABLE: 30 percent likelihood of the following during this time
Visibility: 0.50 miles (0.80 km)
Ceiling: indefinite ceiling with vertical visibility of 200 feet AGL
Clouds: obscured sky
Weather: FZFG  (freezing fog)
Text: FM191500 20010KT P6SM FEW005 SCT040
Forecast period: 1500 to 1800 UTC 19 March 2019
Forecast type: FROM: standard forecast or significant change
Winds: from the SSW (200 degrees) at 12 MPH (10 knots; 5.1 m/s)
Visibility: 6 or more miles 10+ km)
Ceiling: at least 12,000 feet AGL
Clouds: few clouds at 500 feet AGL
scattered clouds at 4000 feet AGL
Weather: no significant weather forecast for this period
Text: TEMPO 1915/1918 3SM BR
Forecast period: 1500 to 1800 UTC 19 March 2019
Forecast type: TEMPORARY: The following changes expected for less than half the time period
Visibility: 3 miles (5 km)
Ceiling: unknown
Clouds: missing
Weather: BR  (mist)
Text: FM191800 24015KT P6SM SCT080 BKN120 RMK NXT FCST BY 191200Z
Forecast period: 1800 UTC 19 March 2019 to 0600 UTC 20 March 2019
Forecast type: FROM: standard forecast or significant change
Winds: from the WSW (240 degrees) at 17 MPH (15 knots; 7.7 m/s)
Visibility: 6 or more miles 10+ km)
Ceiling: 12000 feet AGL
Clouds: scattered clouds at 8000 feet AGL
broken clouds at 12000 feet AGL
Weather: no significant weather forecast for this period